Latest Weather Observations for Busselton Jetty

IDW60801

Issued at 6:02 pm WST Thursday 5 March 2015 (issued every 30 minutes, with the page automatically refreshed every 10 minutes)

About weather observations | Map of weather stations | Latest weather observations for WA | Other Formats
Station Details ID: 009937 Name: BUSSELTON JETTY Lat: -33.63 Lon: 115.34 Height: 3.0 m
Data from the previous 72 hours. | See also: Recent months for locations in Western Australia
Date/Time
WST
Temp
°C
App
Temp
°C
Dew
Point
Rel
Hum
%
Delta-T
°C
Wind Press
QNH
hPa
Press
MSL
hPa
Rain
since 9 am
mm
Dir
 
Spd
km/h
Gust
km/h
Spd
kts
Gust
kts
05/06:00pm - - - - - WSW 35 41 19 22 - - -
05/05:30pm - - - - - WSW 33 39 18 21 - - -
05/05:00pm - - - - - W 28 33 15 18 - - -
05/04:30pm - - - - - W 32 37 17 20 - - -
05/04:00pm - - - - - WNW 30 33 16 18 - - -
05/03:30pm - - - - - NW 26 30 14 16 - - -
05/03:00pm - - - - - NW 26 30 14 16 - - -
05/02:30pm - - - - - NNW 17 19 9 10 - - -
05/02:00pm - - - - - NNW 19 22 10 12 - - -
05/01:30pm - - - - - NNW 19 20 10 11 - - -
05/01:00pm - - - - - NNW 19 20 10 11 - - -
05/12:30pm - - - - - NNW 17 19 9 10 - - -
05/12:00pm - - - - - NNW 13 15 7 8 - - -
05/11:30am - - - - - NNW 7 11 4 6 - - -
05/11:00am - - - - - N 9 9 5 5 - - -
05/10:30am - - - - - ENE 13 15 7 8 - - -
05/10:00am - - - - - E 20 24 11 13 - - -
05/09:30am - - - - - E 19 24 10 13 - - -
05/09:00am - - - - - E 17 20 9 11 - - -
05/08:30am - - - - - ESE 20 28 11 15 - - -
05/08:00am - - - - - ESE 24 30 13 16 - - -
05/07:30am - - - - - ESE 30 35 16 19 - - -
05/07:00am - - - - - ESE 24 28 13 15 - - -
05/06:30am - - - - - ESE 20 30 11 16 - - -
05/06:00am - - - - - SE 20 28 11 15 - - -
05/05:30am - - - - - SE 20 26 11 14 - - -
05/05:00am - - - - - SE 20 26 11 14 - - -
05/04:30am - - - - - SE 24 28 13 15 - - -
05/04:00am - - - - - SE 20 28 11 15 - - -
05/03:30am - - - - - SE 24 30 13 16 - - -
05/03:00am - - - - - SE 28 33 15 18 - - -
05/02:30am - - - - - SE 32 43 17 23 - - -
05/02:00am - - - - - SE 28 35 15 19 - - -
05/01:30am - - - - - SE 28 33 15 18 - - -
05/01:00am - - - - - SE 28 33 15 18 - - -
05/12:30am - - - - - SE 30 35 16 19 - - -
05/12:00am - - - - - SE 33 39 18 21 - - -
 
Date/Time
WST
Temp
°C
App
Temp
°C
Dew
Point
Rel
Hum
%
Delta-T
°C
Wind Press
QNH
hPa
Press
MSL
hPa
Rain
since 9 am
mm
Dir
 
Spd
km/h
Gust
km/h
Spd
kts
Gust
kts
04/11:30pm - - - - - SE 32 37 17 20 - - -
04/11:00pm - - - - - SE 32 39 17 21 - - -
04/10:30pm - - - - - SE 30 35 16 19 - - -
04/10:00pm - - - - - SSE 30 35 16 19 - - -
04/09:30pm - - - - - S 26 30 14 16 - - -
04/09:00pm - - - - - S 30 37 16 20 - - -
04/08:30pm - - - - - S 28 33 15 18 - - -
04/08:00pm - - - - - SSW 30 39 16 21 - - -
04/07:30pm - - - - - SSW 32 43 17 23 - - -
04/07:00pm - - - - - SSW 32 37 17 20 - - -
04/06:30pm - - - - - SSW 33 43 18 23 - - -
04/06:00pm - - - - - SSW 35 44 19 24 - - -
04/05:30pm - - - - - SW 35 43 19 23 - - -
04/05:17pm - - - - - SSW 33 50 18 27 - - -
04/05:00pm - - - - - SW 24 35 13 19 - - -
04/04:30pm - - - - - WNW 24 30 13 16 - - -
04/04:00pm - - - - - NW 17 20 9 11 - - -
04/03:30pm - - - - - NW 15 20 8 11 - - -
04/03:00pm - - - - - NNW 15 17 8 9 - - -
04/02:30pm - - - - - NNW 15 17 8 9 - - -
04/02:00pm - - - - - NE 11 13 6 7 - - -
04/01:30pm - - - - - ESE 11 17 6 9 - - -
04/01:00pm - - - - - SE 17 20 9 11 - - -
04/12:30pm - - - - - SSE 19 28 10 15 - - -
04/12:00pm - - - - - SE 17 28 9 15 - - -
04/11:30am - - - - - SSE 22 30 12 16 - - -
04/11:00am - - - - - SSE 26 33 14 18 - - -
04/10:30am - - - - - SSE 28 32 15 17 - - -
04/10:00am - - - - - SSE 24 32 13 17 - - -
04/09:30am - - - - - SE 28 35 15 19 - - -
04/09:00am - - - - - SE 30 35 16 19 - - -
04/08:30am - - - - - SE 24 30 13 16 - - -
04/08:00am - - - - - SSE 20 26 11 14 - - -
04/07:30am - - - - - SSE 17 19 9 10 - - -
04/07:00am - - - - - SSW 17 19 9 10 - - -
04/06:30am - - - - - SSW 15 17 8 9 - - -
04/06:00am - - - - - SSW 17 19 9 10 - - -
04/05:30am - - - - - SSW 13 17 7 9 - - -
04/05:00am - - - - - SSE 17 20 9 11 - - -
04/04:30am - - - - - SE 15 19 8 10 - - -
04/04:00am - - - - - SSE 17 22 9 12 - - -
04/03:30am - - - - - SSE 17 22 9 12 - - -
04/03:00am - - - - - S 15 19 8 10 - - -
04/02:30am - - - - - S 17 22 9 12 - - -
04/02:00am - - - - - SSW 17 19 9 10 - - -
04/01:30am - - - - - S 15 19 8 10 - - -
04/01:00am - - - - - SSE 20 26 11 14 - - -
04/12:30am - - - - - SSE 17 22 9 12 - - -
04/12:00am - - - - - S 19 24 10 13 - - -
 
Date/Time
WST
Temp
°C
App
Temp
°C
Dew
Point
Rel
Hum
%
Delta-T
°C
Wind Press
QNH
hPa
Press
MSL
hPa
Rain
since 9 am
mm
Dir
 
Spd
km/h
Gust
km/h
Spd
kts
Gust
kts
03/11:30pm - - - - - S 22 28 12 15 - - -
03/11:00pm - - - - - S 28 33 15 18 - - -
03/10:30pm - - - - - S 30 37 16 20 - - -
03/10:00pm - - - - - S 30 35 16 19 - - -
03/09:30pm - - - - - S 32 39 17 21 - - -
03/09:00pm - - - - - S 30 39 16 21 - - -
03/08:30pm - - - - - S 33 43 18 23 - - -
03/08:00pm - - - - - SSW 33 41 18 22 - - -
03/07:30pm - - - - - SSW 32 46 17 25 - - -
03/07:00pm - - - - - SSW 33 46 18 25 - - -
03/06:30pm - - - - - SSW 39 52 21 28 - - -
03/06:00pm - - - - - SSW 39 48 21 26 - - -
03/05:30pm - - - - - SSW 39 46 21 25 - - -
03/05:00pm - - - - - SSW 35 43 19 23 - - -
03/04:30pm - - - - - SSW 39 52 21 28 - - -
03/04:00pm - - - - - SSW 39 48 21 26 - - -
03/03:54pm - - - - - SSW 37 48 20 26 - - -
03/03:30pm - - - - - SSW 19 30 10 16 - - -
03/03:00pm - - - - - SSE 17 35 9 19 - - -
03/02:30pm - - - - - SSE 19 24 10 13 - - -
03/02:00pm - - - - - SSW 13 19 7 10 - - -
03/01:30pm - - - - - SSE 13 19 7 10 - - -
03/01:00pm - - - - - SSE 19 26 10 14 - - -
03/12:30pm - - - - - SE 15 24 8 13 - - -
03/12:00pm - - - - - SE 17 26 9 14 - - -
03/11:30am - - - - - SSE 20 30 11 16 - - -
03/11:00am - - - - - SSE 20 32 11 17 - - -
03/10:30am - - - - - SSE 26 35 14 19 - - -
03/10:00am - - - - - SSE 28 39 15 21 - - -
03/09:30am - - - - - SSE 30 39 16 21 - - -
03/09:00am - - - - - SSE 32 39 17 21 - - -
03/08:30am - - - - - SSE 32 41 17 22 - - -
03/08:00am - - - - - S 24 32 13 17 - - -
03/07:30am - - - - - S 20 26 11 14 - - -
03/07:00am - - - - - S 19 26 10 14 - - -
03/06:30am - - - - - S 20 28 11 15 - - -
03/06:00am - - - - - S 22 28 12 15 - - -
03/05:30am - - - - - SSW 19 22 10 12 - - -
03/05:00am - - - - - SSW 19 24 10 13 - - -
03/04:30am - - - - - SSE 17 20 9 11 - - -
03/04:00am - - - - - S 15 20 8 11 - - -
03/03:30am - - - - - SSE 17 20 9 11 - - -
03/03:00am - - - - - SSE 19 24 10 13 - - -
03/02:30am - - - - - SSE 19 24 10 13 - - -
03/02:00am - - - - - SSE 19 26 10 14 - - -
03/01:30am - - - - - SSE 26 30 14 16 - - -
03/01:00am - - - - - SSE 26 32 14 17 - - -
03/12:30am - - - - - SSE 24 32 13 17 - - -
03/12:00am - - - - - SSE 33 41 18 22 - - -
 
Date/Time
WST
Temp
°C
App
Temp
°C
Dew
Point
Rel
Hum
%
Delta-T
°C
Wind Press
QNH
hPa
Press
MSL
hPa
Rain
since 9 am
mm
Dir
 
Spd
km/h
Gust
km/h
Spd
kts
Gust
kts
02/11:30pm - - - - - S 32 39 17 21 - - -
02/11:00pm - - - - - S 32 39 17 21 - - -
02/10:30pm - - - - - S 30 37 16 20 - - -
02/10:00pm - - - - - SSE 28 32 15 17 - - -
02/09:30pm - - - - - SSE 28 32 15 17 - - -
02/09:00pm - - - - - SSE 28 33 15 18 - - -
02/08:30pm - - - - - SSE 28 33 15 18 - - -
02/08:00pm - - - - - SSE 28 33 15 18 - - -
02/07:30pm - - - - - SSE 33 41 18 22 - - -
02/07:00pm - - - - - SSE 35 41 19 22 - - -
02/06:30pm - - - - - SSE 37 48 20 26 - - -

Other Formats:

Comma delimited format used in spreadsheet applications
http://www.bom.gov.au/fwo/IDW60801/IDW60801.95602.axf

JavaScript Object Notation format (JSON) in row-major order
http://www.bom.gov.au/fwo/IDW60801/IDW60801.95602.json